createdAt,value
2023-02-11T00:04:14.706Z,57.10
2023-02-11T00:09:16.421Z,57.10
2023-02-11T00:14:18.473Z,57.10
2023-02-11T00:19:20.394Z,57.10
2023-02-11T00:24:22.042Z,57.00
2023-02-11T00:29:23.937Z,57.00
2023-02-11T00:34:25.580Z,57.10
2023-02-11T00:39:27.524Z,57.10
2023-02-11T00:44:29.321Z,57.00
2023-02-11T00:49:31.146Z,57.00
2023-02-11T00:54:32.924Z,57.00
2023-02-11T00:59:34.622Z,56.90
2023-02-11T01:04:36.364Z,56.90
2023-02-11T01:09:38.353Z,57.00
2023-02-11T01:14:40.225Z,57.00
2023-02-11T01:19:42.195Z,57.00
2023-02-11T01:24:43.825Z,57.00
2023-02-11T01:29:45.735Z,57.00
2023-02-11T01:34:47.464Z,56.90
2023-02-11T01:39:49.543Z,57.00
2023-02-11T01:44:52.539Z,57.00
2023-02-11T01:49:56.958Z,56.90
2023-02-11T01:55:24.647Z,57.00
2023-02-11T02:05:59.700Z,57.00
2023-02-11T02:11:01.301Z,57.00
2023-02-11T02:16:09.790Z,57.00
2023-02-11T02:21:29.716Z,56.80
2023-02-11T02:26:34.304Z,56.90
2023-02-11T02:31:39.206Z,56.90
2023-02-11T02:36:47.969Z,57.10
2023-02-11T02:41:50.881Z,56.90
2023-02-11T02:46:52.674Z,56.90
2023-02-11T02:52:03.732Z,56.90
2023-02-11T02:57:24.312Z,56.90
2023-02-11T03:02:45.794Z,57.00
2023-02-11T03:08:02.515Z,57.00
2023-02-11T03:13:05.297Z,56.90
2023-02-11T03:18:08.827Z,56.90
2023-02-11T03:23:10.495Z,57.00
2023-02-11T03:28:24.590Z,57.00
2023-02-11T03:33:32.617Z,57.00
2023-02-11T03:38:37.761Z,57.10
2023-02-11T03:43:44.790Z,57.00
2023-02-11T03:48:51.117Z,57.10
2023-02-11T03:53:55.137Z,57.10
2023-02-11T03:58:57.088Z,57.10
2023-02-11T04:03:58.988Z,57.10
2023-02-11T04:09:01.153Z,57.10
2023-02-11T04:14:02.959Z,57.20
2023-02-11T04:19:05.183Z,57.10
2023-02-11T04:24:06.944Z,57.10
2023-02-11T04:29:08.977Z,57.20
2023-02-11T04:34:10.693Z,57.20
2023-02-11T04:39:12.534Z,57.20
2023-02-11T04:44:14.425Z,57.10
2023-02-11T06:06:29.954Z,56.50
2023-02-11T06:11:31.543Z,56.00
2023-02-11T06:16:33.262Z,55.70
2023-02-11T06:21:43.563Z,55.70
2023-02-11T06:26:46.046Z,55.70
2023-02-11T06:31:48.007Z,55.70
2023-02-11T06:36:49.900Z,55.80
2023-02-11T06:41:51.810Z,55.80
2023-02-11T06:46:53.560Z,56.00
2023-02-11T06:51:55.370Z,56.00
2023-02-11T06:56:57.128Z,56.00
2023-02-11T07:01:59.009Z,56.00
2023-02-11T07:07:01.062Z,56.10
2023-02-11T07:12:02.784Z,56.10
2023-02-11T07:17:04.945Z,56.20
2023-02-11T07:22:06.701Z,56.30
2023-02-11T07:27:08.977Z,56.50
2023-02-11T07:32:10.808Z,56.40
2023-02-11T07:37:12.608Z,56.40
2023-02-11T07:42:14.352Z,56.50
2023-02-11T07:47:16.151Z,56.70
2023-02-11T07:52:17.929Z,56.80
2023-02-11T07:57:19.706Z,56.70
2023-02-11T08:02:21.515Z,56.50
2023-02-11T08:07:23.374Z,56.20
2023-02-11T08:12:25.049Z,55.80
2023-02-11T08:17:26.808Z,55.70
2023-02-11T08:22:30.960Z,55.60
2023-02-11T08:27:32.725Z,55.70
2023-02-11T08:32:35.018Z,55.80
2023-02-11T08:37:36.678Z,55.90
2023-02-11T08:42:38.815Z,55.90
2023-02-11T08:47:40.711Z,55.80
2023-02-11T08:52:43.143Z,55.80
2023-02-11T08:57:46.133Z,55.80
2023-02-11T09:02:48.300Z,55.90
2023-02-11T09:07:50.218Z,55.90
2023-02-11T09:12:51.964Z,55.90
2023-02-11T09:17:53.702Z,55.90
2023-02-11T09:22:57.265Z,55.90
2023-02-11T09:27:59.015Z,55.90
2023-02-11T09:33:00.953Z,57.10
2023-02-11T09:38:02.732Z,56.80
2023-02-11T09:43:07.280Z,57.10
2023-02-11T09:48:16.328Z,57.70
2023-02-11T09:53:20.308Z,58.30
2023-02-11T09:58:22.122Z,58.00
2023-02-11T10:03:29.788Z,57.90
2023-02-11T10:08:42.817Z,58.10
2023-02-11T10:14:01.939Z,58.20
2023-02-11T10:19:14.120Z,58.40
2023-02-11T10:24:16.470Z,58.70
2023-02-11T10:29:30.410Z,58.90
2023-02-11T10:34:32.357Z,59.00
2023-02-11T10:39:34.083Z,59.00
2023-02-11T10:45:02.131Z,59.30
2023-02-11T10:50:20.692Z,59.40
2023-02-11T10:55:26.134Z,59.90
2023-02-11T11:00:38.958Z,60.20
2023-02-11T11:05:49.696Z,60.30
2023-02-11T11:11:11.681Z,61.00
2023-02-11T11:16:13.411Z,61.00
2023-02-11T11:21:15.116Z,62.00
2023-02-11T11:26:17.704Z,61.50
2023-02-11T11:31:24.504Z,62.80
2023-02-11T11:36:34.907Z,62.90
2023-02-11T11:41:36.731Z,62.90
2023-02-11T11:46:40.721Z,63.50
2023-02-11T11:51:45.351Z,63.50
2023-02-11T11:57:19.514Z,63.50
2023-02-11T12:02:39.615Z,63.30
2023-02-11T12:07:50.263Z,63.30
2023-02-11T12:12:51.938Z,63.50
2023-02-11T12:18:12.034Z,63.60
2023-02-11T12:23:23.132Z,63.50
2023-02-11T12:28:30.876Z,63.50
2023-02-11T12:33:44.813Z,63.70
2023-02-11T12:38:49.164Z,63.90
2023-02-11T12:43:51.228Z,64.00
2023-02-11T12:49:09.931Z,64.10
2023-02-11T12:54:11.785Z,64.10
2023-02-11T12:59:17.658Z,64.40
2023-02-11T13:04:42.335Z,64.30
2023-02-11T13:09:49.096Z,64.30
2023-02-11T13:14:52.613Z,64.40
2023-02-11T13:19:57.683Z,64.00
2023-02-11T13:25:06.951Z,64.20
2023-02-11T13:30:21.103Z,64.30
2023-02-11T13:35:30.956Z,64.20
2023-02-11T13:40:37.119Z,64.10
2023-02-11T13:45:39.032Z,64.20
2023-02-11T13:50:47.770Z,64.50
2023-02-11T13:55:51.291Z,64.40
2023-02-11T14:00:53.304Z,64.30
2023-02-11T14:06:29.075Z,64.30
2023-02-11T14:11:33.836Z,64.30
2023-02-11T14:16:38.280Z,64.60
2023-02-11T14:21:41.906Z,64.80
2023-02-11T14:26:55.890Z,64.80
2023-02-11T14:32:03.344Z,64.80
2023-02-11T14:37:31.342Z,64.80
2023-02-11T14:42:33.102Z,64.80
2023-02-11T14:48:13.197Z,64.90
2023-02-11T14:53:19.005Z,65.00
2023-02-11T14:58:24.714Z,64.90
2023-02-11T15:03:27.417Z,65.80
2023-02-11T15:08:30.871Z,65.40
2023-02-11T15:13:33.112Z,65.50
2023-02-11T15:18:41.010Z,65.20
2023-02-11T15:23:54.816Z,65.50
2023-02-11T15:28:56.471Z,65.10
2023-02-11T15:34:06.713Z,64.90
2023-02-11T15:39:19.041Z,64.80
2023-02-11T15:44:28.351Z,64.00
2023-02-11T15:49:30.148Z,63.30
2023-02-11T15:54:32.469Z,63.50
2023-02-11T15:59:38.357Z,63.60
2023-02-11T16:04:48.952Z,62.90
2023-02-11T16:09:57.263Z,62.70
2023-02-11T16:15:00.378Z,63.20
2023-02-11T16:20:02.160Z,62.80
2023-02-11T16:25:03.964Z,62.90
2023-02-11T16:30:06.005Z,62.90
2023-02-11T16:35:10.872Z,63.10
2023-02-11T16:40:12.924Z,62.80
2023-02-11T16:45:15.591Z,62.70
2023-02-11T16:50:23.992Z,62.60
2023-02-11T16:55:25.607Z,62.70
2023-02-11T17:00:27.376Z,62.50
2023-02-11T17:05:29.288Z,62.60
2023-02-11T17:10:31.075Z,62.60
2023-02-11T17:15:32.831Z,62.40
2023-02-11T17:20:34.902Z,62.30
2023-02-11T17:25:40.758Z,62.40
2023-02-11T17:30:44.191Z,62.20
2023-02-11T17:35:46.217Z,62.30
2023-02-11T17:40:56.591Z,62.30
2023-02-11T17:45:58.406Z,62.50
2023-02-11T17:51:00.787Z,62.30
2023-02-11T17:56:06.460Z,62.30
2023-02-11T18:01:08.469Z,62.10
2023-02-11T18:06:11.424Z,62.00
2023-02-11T18:11:13.319Z,62.00
2023-02-11T18:16:15.932Z,62.10
2023-02-11T18:21:18.975Z,62.20
2023-02-11T18:26:21.397Z,62.20
2023-02-11T18:31:23.651Z,62.40
2023-02-11T18:36:25.474Z,62.40
2023-02-11T18:41:27.404Z,62.60
2023-02-11T18:46:29.987Z,62.80
2023-02-11T18:51:32.539Z,62.70
2023-02-11T18:56:34.415Z,62.50
2023-02-11T19:01:36.238Z,62.20
2023-02-11T19:06:38.198Z,61.90
2023-02-11T19:11:54.196Z,61.70
2023-02-11T19:16:57.128Z,61.60
2023-02-11T19:21:59.756Z,61.70
2023-02-11T19:27:02.641Z,61.60
2023-02-11T19:32:06.009Z,61.40
2023-02-11T19:37:12.696Z,61.20
2023-02-11T19:42:14.490Z,61.20
2023-02-11T19:47:16.322Z,61.20
2023-02-11T19:52:18.315Z,61.10
2023-02-11T19:57:19.946Z,61.00
2023-02-11T20:02:21.734Z,61.00
2023-02-11T20:07:23.632Z,61.10
2023-02-11T20:12:25.423Z,61.40
2023-02-11T20:17:27.191Z,61.50
2023-02-11T20:22:31.009Z,61.70
2023-02-11T20:27:33.519Z,61.80
2023-02-11T20:32:38.647Z,61.90
2023-02-11T20:37:43.954Z,62.00
2023-02-11T20:42:45.890Z,62.10
2023-02-11T20:47:47.755Z,62.20
2023-02-11T20:52:49.446Z,62.20
2023-02-11T20:57:51.192Z,62.30
2023-02-11T21:02:53.105Z,62.40
2023-02-11T21:07:54.845Z,62.60
2023-02-11T21:12:57.055Z,62.60
2023-02-11T21:17:58.833Z,62.80
2023-02-11T21:23:00.833Z,62.80
2023-02-11T21:28:02.644Z,62.90
2023-02-11T21:33:04.677Z,63.00
2023-02-11T21:38:06.510Z,63.00
2023-02-11T21:43:08.405Z,64.00
2023-02-11T21:48:10.664Z,62.80
2023-02-11T21:53:12.982Z,62.50
2023-02-11T21:58:14.819Z,62.50
2023-02-11T22:03:16.617Z,62.30
2023-02-11T22:08:20.248Z,62.30
2023-02-11T22:13:22.236Z,63.20
2023-02-11T22:18:23.935Z,62.10
2023-02-11T22:23:25.649Z,62.00
2023-02-11T22:28:27.275Z,62.10
2023-02-11T22:33:28.959Z,62.00
2023-02-11T22:38:31.178Z,62.10
2023-02-11T22:43:32.838Z,62.20
2023-02-11T22:48:35.579Z,62.20
2023-02-11T22:53:37.549Z,62.10
2023-02-11T22:58:39.359Z,63.00
2023-02-11T23:03:41.327Z,62.10
2023-02-11T23:08:43.363Z,62.10
2023-02-11T23:13:45.859Z,61.90
2023-02-11T23:18:48.863Z,61.90
2023-02-11T23:23:54.666Z,61.90
2023-02-11T23:28:57.324Z,61.90
2023-02-11T23:33:59.287Z,61.80
2023-02-11T23:39:01.038Z,61.80
2023-02-11T23:44:02.682Z,61.70
2023-02-11T23:49:04.432Z,61.70
2023-02-11T23:54:06.074Z,61.60
2023-02-11T23:59:08.093Z,61.70
